sensor_id;sensor_type;location;lat;lon;timestamp;P1;durP1;ratioP1;P2;durP2;ratioP2
74957;SDS011;63741;42.624;26.276;2023-06-14T00:00:22;4.38;;;2.83;;
74957;SDS011;63741;42.624;26.276;2023-06-14T00:02:49;5.50;;;2.92;;
74957;SDS011;63741;42.624;26.276;2023-06-14T00:05:16;6.50;;;2.92;;
74957;SDS011;63741;42.624;26.276;2023-06-14T00:07:43;4.03;;;3.03;;
74957;SDS011;63741;42.624;26.276;2023-06-14T00:10:13;4.18;;;2.70;;
74957;SDS011;63741;42.624;26.276;2023-06-14T00:12:41;8.43;;;2.67;;
74957;SDS011;63741;42.624;26.276;2023-06-14T00:15:08;5.03;;;2.60;;
74957;SDS011;63741;42.624;26.276;2023-06-14T00:17:38;8.80;;;2.97;;
74957;SDS011;63741;42.624;26.276;2023-06-14T00:20:05;6.85;;;3.00;;
74957;SDS011;63741;42.624;26.276;2023-06-14T00:22:33;10.23;;;2.83;;
74957;SDS011;63741;42.624;26.276;2023-06-14T00:25:00;6.10;;;3.00;;
74957;SDS011;63741;42.624;26.276;2023-06-14T00:27:45;8.43;;;2.80;;
74957;SDS011;63741;42.624;26.276;2023-06-14T00:30:14;5.80;;;3.08;;
74957;SDS011;63741;42.624;26.276;2023-06-14T00:32:41;5.20;;;2.88;;
74957;SDS011;63741;42.624;26.276;2023-06-14T00:35:10;4.50;;;2.65;;
74957;SDS011;63741;42.624;26.276;2023-06-14T00:37:37;4.55;;;2.60;;
74957;SDS011;63741;42.624;26.276;2023-06-14T00:40:05;7.28;;;2.72;;
74957;SDS011;63741;42.624;26.276;2023-06-14T00:42:33;4.80;;;2.58;;
74957;SDS011;63741;42.624;26.276;2023-06-14T00:45:00;5.80;;;2.75;;
74957;SDS011;63741;42.624;26.276;2023-06-14T00:47:27;7.22;;;2.90;;
74957;SDS011;63741;42.624;26.276;2023-06-14T00:49:54;6.15;;;2.80;;
74957;SDS011;63741;42.624;26.276;2023-06-14T00:52:22;3.75;;;2.53;;
74957;SDS011;63741;42.624;26.276;2023-06-14T00:54:53;3.65;;;2.67;;
74957;SDS011;63741;42.624;26.276;2023-06-14T00:57:20;3.60;;;3.17;;
74957;SDS011;63741;42.624;26.276;2023-06-14T00:59:48;8.32;;;3.15;;
74957;SDS011;63741;42.624;26.276;2023-06-14T01:02:16;5.80;;;2.92;;
74957;SDS011;63741;42.624;26.276;2023-06-14T01:04:47;5.53;;;2.50;;
74957;SDS011;63741;42.624;26.276;2023-06-14T01:14:57;6.25;;;2.50;;
74957;SDS011;63741;42.624;26.276;2023-06-14T01:17:27;7.32;;;2.47;;
74957;SDS011;63741;42.624;26.276;2023-06-14T01:19:59;5.75;;;2.53;;
74957;SDS011;63741;42.624;26.276;2023-06-14T01:22:29;6.10;;;2.25;;
74957;SDS011;63741;42.624;26.276;2023-06-14T01:24:56;5.60;;;2.63;;
74957;SDS011;63741;42.624;26.276;2023-06-14T01:27:24;5.60;;;2.60;;
74957;SDS011;63741;42.624;26.276;2023-06-14T01:29:55;5.80;;;2.58;;
74957;SDS011;63741;42.624;26.276;2023-06-14T01:32:27;6.82;;;2.65;;
74957;SDS011;63741;42.624;26.276;2023-06-14T01:34:56;4.90;;;2.75;;
74957;SDS011;63741;42.624;26.276;2023-06-14T01:37:26;6.53;;;2.67;;
74957;SDS011;63741;42.624;26.276;2023-06-14T01:39:53;7.53;;;3.20;;
74957;SDS011;63741;42.624;26.276;2023-06-14T01:42:20;5.45;;;2.92;;
74957;SDS011;63741;42.624;26.276;2023-06-14T01:44:48;6.10;;;2.85;;
74957;SDS011;63741;42.624;26.276;2023-06-14T01:47:16;11.57;;;3.15;;
74957;SDS011;63741;42.624;26.276;2023-06-14T01:49:44;7.93;;;3.28;;
74957;SDS011;63741;42.624;26.276;2023-06-14T01:52:13;6.28;;;3.13;;
74957;SDS011;63741;42.624;26.276;2023-06-14T01:54:42;9.45;;;3.13;;
74957;SDS011;63741;42.624;26.276;2023-06-14T01:57:09;9.43;;;3.40;;
74957;SDS011;63741;42.624;26.276;2023-06-14T01:59:37;8.88;;;3.20;;
74957;SDS011;63741;42.624;26.276;2023-06-14T02:02:04;4.70;;;3.00;;
74957;SDS011;63741;42.624;26.276;2023-06-14T02:04:31;7.90;;;2.75;;
74957;SDS011;63741;42.624;26.276;2023-06-14T02:06:58;8.60;;;3.08;;
74957;SDS011;63741;42.624;26.276;2023-06-14T02:09:26;6.70;;;3.20;;
74957;SDS011;63741;42.624;26.276;2023-06-14T02:11:53;7.35;;;2.97;;
74957;SDS011;63741;42.624;26.276;2023-06-14T02:14:23;15.23;;;3.47;;
74957;SDS011;63741;42.624;26.276;2023-06-14T02:16:50;13.73;;;3.20;;
74957;SDS011;63741;42.624;26.276;2023-06-14T02:19:18;16.38;;;3.58;;
74957;SDS011;63741;42.624;26.276;2023-06-14T02:21:45;10.32;;;3.15;;
74957;SDS011;63741;42.624;26.276;2023-06-14T02:24:13;6.07;;;2.72;;
74957;SDS011;63741;42.624;26.276;2023-06-14T02:26:40;7.60;;;2.88;;
74957;SDS011;63741;42.624;26.276;2023-06-14T02:29:13;3.92;;;2.75;;
74957;SDS011;63741;42.624;26.276;2023-06-14T02:31:41;8.30;;;2.70;;
74957;SDS011;63741;42.624;26.276;2023-06-14T02:34:08;11.43;;;3.28;;
74957;SDS011;63741;42.624;26.276;2023-06-14T02:36:35;7.07;;;2.95;;
74957;SDS011;63741;42.624;26.276;2023-06-14T02:39:08;5.22;;;2.67;;
74957;SDS011;63741;42.624;26.276;2023-06-14T02:41:37;10.45;;;3.03;;
74957;SDS011;63741;42.624;26.276;2023-06-14T02:44:05;5.13;;;2.50;;
74957;SDS011;63741;42.624;26.276;2023-06-14T02:46:32;6.75;;;2.85;;
74957;SDS011;63741;42.624;26.276;2023-06-14T02:48:59;7.93;;;3.00;;
74957;SDS011;63741;42.624;26.276;2023-06-14T02:51:26;5.97;;;3.25;;
74957;SDS011;63741;42.624;26.276;2023-06-14T02:53:53;7.70;;;3.15;;
74957;SDS011;63741;42.624;26.276;2023-06-14T02:56:20;7.70;;;3.40;;
74957;SDS011;63741;42.624;26.276;2023-06-14T02:58:50;6.50;;;3.03;;
74957;SDS011;63741;42.624;26.276;2023-06-14T03:01:18;10.93;;;3.10;;
74957;SDS011;63741;42.624;26.276;2023-06-14T03:03:48;12.07;;;3.53;;
74957;SDS011;63741;42.624;26.276;2023-06-14T03:06:15;11.40;;;2.67;;
74957;SDS011;63741;42.624;26.276;2023-06-14T03:08:45;7.78;;;2.75;;
74957;SDS011;63741;42.624;26.276;2023-06-14T03:11:16;11.50;;;2.90;;
74957;SDS011;63741;42.624;26.276;2023-06-14T03:13:47;4.07;;;2.80;;
74957;SDS011;63741;42.624;26.276;2023-06-14T03:16:15;7.90;;;2.85;;
74957;SDS011;63741;42.624;26.276;2023-06-14T03:18:44;8.02;;;2.45;;
74957;SDS011;63741;42.624;26.276;2023-06-14T03:21:11;24.80;;;3.20;;
74957;SDS011;63741;42.624;26.276;2023-06-14T03:23:42;12.27;;;3.28;;
74957;SDS011;63741;42.624;26.276;2023-06-14T03:26:10;8.60;;;2.80;;
74957;SDS011;63741;42.624;26.276;2023-06-14T03:28:41;8.57;;;2.83;;
74957;SDS011;63741;42.624;26.276;2023-06-14T03:31:09;8.00;;;3.08;;
74957;SDS011;63741;42.624;26.276;2023-06-14T03:33:36;26.55;;;3.78;;
74957;SDS011;63741;42.624;26.276;2023-06-14T03:36:03;6.20;;;2.70;;
74957;SDS011;63741;42.624;26.276;2023-06-14T03:38:30;13.68;;;3.00;;
74957;SDS011;63741;42.624;26.276;2023-06-14T03:40:57;17.95;;;2.90;;
74957;SDS011;63741;42.624;26.276;2023-06-14T03:43:24;6.85;;;2.80;;
74957;SDS011;63741;42.624;26.276;2023-06-14T03:45:52;8.95;;;2.78;;
74957;SDS011;63741;42.624;26.276;2023-06-14T03:48:24;6.60;;;3.25;;
74957;SDS011;63741;42.624;26.276;2023-06-14T03:50:52;9.70;;;3.20;;
74957;SDS011;63741;42.624;26.276;2023-06-14T03:53:20;7.55;;;3.38;;
74957;SDS011;63741;42.624;26.276;2023-06-14T03:55:51;6.13;;;3.15;;
74957;SDS011;63741;42.624;26.276;2023-06-14T03:58:26;9.52;;;3.00;;
74957;SDS011;63741;42.624;26.276;2023-06-14T04:00:55;7.43;;;3.20;;
74957;SDS011;63741;42.624;26.276;2023-06-14T04:03:23;7.63;;;3.03;;
74957;SDS011;63741;42.624;26.276;2023-06-14T04:05:51;8.90;;;3.38;;
74957;SDS011;63741;42.624;26.276;2023-06-14T04:08:26;6.25;;;3.00;;
74957;SDS011;63741;42.624;26.276;2023-06-14T04:10:57;11.57;;;2.97;;
74957;SDS011;63741;42.624;26.276;2023-06-14T04:13:24;23.92;;;3.38;;
74957;SDS011;63741;42.624;26.276;2023-06-14T04:15:51;23.70;;;3.30;;
74957;SDS011;63741;42.624;26.276;2023-06-14T04:18:24;7.68;;;3.08;;
74957;SDS011;63741;42.624;26.276;2023-06-14T04:20:52;7.85;;;2.78;;
74957;SDS011;63741;42.624;26.276;2023-06-14T04:23:20;6.30;;;2.67;;
74957;SDS011;63741;42.624;26.276;2023-06-14T04:25:49;8.15;;;3.10;;
74957;SDS011;63741;42.624;26.276;2023-06-14T04:28:16;17.05;;;3.05;;
74957;SDS011;63741;42.624;26.276;2023-06-14T04:30:45;12.73;;;2.80;;
74957;SDS011;63741;42.624;26.276;2023-06-14T04:33:15;15.07;;;3.08;;
74957;SDS011;63741;42.624;26.276;2023-06-14T04:35:45;10.93;;;2.85;;
74957;SDS011;63741;42.624;26.276;2023-06-14T04:38:15;20.35;;;2.95;;
74957;SDS011;63741;42.624;26.276;2023-06-14T04:40:42;14.80;;;3.10;;
74957;SDS011;63741;42.624;26.276;2023-06-14T04:43:14;21.08;;;3.00;;
74957;SDS011;63741;42.624;26.276;2023-06-14T04:45:44;20.92;;;3.42;;
74957;SDS011;63741;42.624;26.276;2023-06-14T04:48:13;15.52;;;3.15;;
74957;SDS011;63741;42.624;26.276;2023-06-14T04:50:41;9.48;;;2.50;;
74957;SDS011;63741;42.624;26.276;2023-06-14T04:53:09;9.65;;;2.50;;
74957;SDS011;63741;42.624;26.276;2023-06-14T04:55:38;15.90;;;2.60;;
74957;SDS011;63741;42.624;26.276;2023-06-14T04:58:05;14.23;;;2.55;;
74957;SDS011;63741;42.624;26.276;2023-06-14T05:00:32;5.53;;;2.47;;
74957;SDS011;63741;42.624;26.276;2023-06-14T05:02:59;5.70;;;2.30;;
74957;SDS011;63741;42.624;26.276;2023-06-14T05:05:28;7.38;;;2.17;;
74957;SDS011;63741;42.624;26.276;2023-06-14T05:07:55;7.20;;;2.10;;
74957;SDS011;63741;42.624;26.276;2023-06-14T05:10:22;5.63;;;2.10;;
74957;SDS011;63741;42.624;26.276;2023-06-14T05:12:49;7.18;;;2.30;;
74957;SDS011;63741;42.624;26.276;2023-06-14T05:15:17;8.82;;;2.67;;
74957;SDS011;63741;42.624;26.276;2023-06-14T05:17:45;7.50;;;2.92;;
74957;SDS011;63741;42.624;26.276;2023-06-14T05:20:19;5.10;;;2.55;;
74957;SDS011;63741;42.624;26.276;2023-06-14T05:22:46;9.43;;;3.00;;
74957;SDS011;63741;42.624;26.276;2023-06-14T05:25:15;3.78;;;2.65;;
74957;SDS011;63741;42.624;26.276;2023-06-14T05:27:42;5.85;;;2.30;;
74957;SDS011;63741;42.624;26.276;2023-06-14T05:30:09;5.35;;;2.20;;
74957;SDS011;63741;42.624;26.276;2023-06-14T05:32:37;5.05;;;2.22;;
74957;SDS011;63741;42.624;26.276;2023-06-14T05:35:04;14.60;;;2.85;;
74957;SDS011;63741;42.624;26.276;2023-06-14T05:37:32;8.15;;;2.42;;
74957;SDS011;63741;42.624;26.276;2023-06-14T05:39:59;3.25;;;2.25;;
74957;SDS011;63741;42.624;26.276;2023-06-14T05:42:26;5.90;;;2.42;;
74957;SDS011;63741;42.624;26.276;2023-06-14T05:44:53;3.35;;;2.00;;
74957;SDS011;63741;42.624;26.276;2023-06-14T05:47:20;6.43;;;1.90;;
74957;SDS011;63741;42.624;26.276;2023-06-14T05:49:47;4.60;;;2.10;;
74957;SDS011;63741;42.624;26.276;2023-06-14T05:52:13;4.90;;;2.00;;
74957;SDS011;63741;42.624;26.276;2023-06-14T05:54:40;3.17;;;2.08;;
74957;SDS011;63741;42.624;26.276;2023-06-14T05:57:07;4.03;;;2.17;;
74957;SDS011;63741;42.624;26.276;2023-06-14T05:59:34;6.85;;;2.13;;
74957;SDS011;63741;42.624;26.276;2023-06-14T06:02:01;3.90;;;2.05;;
74957;SDS011;63741;42.624;26.276;2023-06-14T06:04:28;5.90;;;2.30;;
74957;SDS011;63741;42.624;26.276;2023-06-14T06:06:56;7.63;;;1.98;;
74957;SDS011;63741;42.624;26.276;2023-06-14T06:09:22;3.47;;;1.80;;
74957;SDS011;63741;42.624;26.276;2023-06-14T06:11:49;3.85;;;1.88;;
74957;SDS011;63741;42.624;26.276;2023-06-14T06:14:20;3.60;;;1.80;;
74957;SDS011;63741;42.624;26.276;2023-06-14T06:16:47;3.78;;;1.60;;
74957;SDS011;63741;42.624;26.276;2023-06-14T06:19:14;2.30;;;1.50;;
74957;SDS011;63741;42.624;26.276;2023-06-14T06:21:41;5.15;;;1.92;;
74957;SDS011;63741;42.624;26.276;2023-06-14T06:24:08;8.70;;;1.80;;
74957;SDS011;63741;42.624;26.276;2023-06-14T06:26:36;4.40;;;2.00;;
74957;SDS011;63741;42.624;26.276;2023-06-14T06:29:03;8.02;;;1.85;;
74957;SDS011;63741;42.624;26.276;2023-06-14T06:31:30;4.57;;;1.70;;
74957;SDS011;63741;42.624;26.276;2023-06-14T06:33:57;2.70;;;1.70;;
74957;SDS011;63741;42.624;26.276;2023-06-14T06:36:24;5.45;;;1.92;;
74957;SDS011;63741;42.624;26.276;2023-06-14T06:38:51;6.07;;;2.00;;
74957;SDS011;63741;42.624;26.276;2023-06-14T06:41:18;2.60;;;1.60;;
74957;SDS011;63741;42.624;26.276;2023-06-14T06:43:45;3.33;;;1.90;;
74957;SDS011;63741;42.624;26.276;2023-06-14T06:46:15;5.72;;;1.65;;
74957;SDS011;63741;42.624;26.276;2023-06-14T06:48:44;6.80;;;1.60;;
74957;SDS011;63741;42.624;26.276;2023-06-14T06:51:11;7.68;;;1.80;;
74957;SDS011;63741;42.624;26.276;2023-06-14T06:53:41;7.03;;;1.98;;
74957;SDS011;63741;42.624;26.276;2023-06-14T06:56:15;7.32;;;1.90;;
74957;SDS011;63741;42.624;26.276;2023-06-14T06:58:42;9.32;;;1.98;;
74957;SDS011;63741;42.624;26.276;2023-06-14T07:01:09;5.57;;;1.65;;
74957;SDS011;63741;42.624;26.276;2023-06-14T07:03:35;11.77;;;1.90;;
74957;SDS011;63741;42.624;26.276;2023-06-14T07:06:02;5.80;;;1.98;;
74957;SDS011;63741;42.624;26.276;2023-06-14T07:08:30;18.25;;;2.17;;
74957;SDS011;63741;42.624;26.276;2023-06-14T07:10:57;10.20;;;2.13;;
74957;SDS011;63741;42.624;26.276;2023-06-14T07:13:24;6.47;;;2.00;;
74957;SDS011;63741;42.624;26.276;2023-06-14T07:15:53;17.80;;;2.30;;
74957;SDS011;63741;42.624;26.276;2023-06-14T07:18:21;9.27;;;2.03;;
74957;SDS011;63741;42.624;26.276;2023-06-14T07:20:48;5.55;;;1.73;;
74957;SDS011;63741;42.624;26.276;2023-06-14T07:23:16;7.32;;;2.03;;
74957;SDS011;63741;42.624;26.276;2023-06-14T07:25:43;7.95;;;1.70;;
74957;SDS011;63741;42.624;26.276;2023-06-14T07:28:10;7.55;;;1.90;;
74957;SDS011;63741;42.624;26.276;2023-06-14T07:30:37;6.40;;;2.00;;
74957;SDS011;63741;42.624;26.276;2023-06-14T07:33:04;9.30;;;2.30;;
74957;SDS011;63741;42.624;26.276;2023-06-14T07:35:31;8.10;;;2.03;;
74957;SDS011;63741;42.624;26.276;2023-06-14T07:37:58;7.13;;;2.08;;
74957;SDS011;63741;42.624;26.276;2023-06-14T07:40:24;17.23;;;2.33;;
74957;SDS011;63741;42.624;26.276;2023-06-14T07:42:51;4.28;;;1.80;;
74957;SDS011;63741;42.624;26.276;2023-06-14T07:45:20;6.97;;;1.88;;
74957;SDS011;63741;42.624;26.276;2023-06-14T07:47:47;8.52;;;2.00;;
74957;SDS011;63741;42.624;26.276;2023-06-14T07:50:14;7.38;;;2.03;;
74957;SDS011;63741;42.624;26.276;2023-06-14T07:52:41;9.43;;;1.88;;
74957;SDS011;63741;42.624;26.276;2023-06-14T07:55:08;12.38;;;2.47;;
74957;SDS011;63741;42.624;26.276;2023-06-14T07:57:35;9.50;;;2.25;;
74957;SDS011;63741;42.624;26.276;2023-06-14T08:00:03;4.68;;;1.63;;
74957;SDS011;63741;42.624;26.276;2023-06-14T08:02:37;6.97;;;1.90;;
74957;SDS011;63741;42.624;26.276;2023-06-14T08:05:04;4.18;;;1.70;;
74957;SDS011;63741;42.624;26.276;2023-06-14T08:07:31;7.95;;;2.00;;
74957;SDS011;63741;42.624;26.276;2023-06-14T08:09:58;2.47;;;1.63;;
74957;SDS011;63741;42.624;26.276;2023-06-14T08:12:25;4.25;;;1.58;;
74957;SDS011;63741;42.624;26.276;2023-06-14T08:14:52;8.57;;;2.10;;
74957;SDS011;63741;42.624;26.276;2023-06-14T08:17:38;5.90;;;1.63;;
74957;SDS011;63741;42.624;26.276;2023-06-14T08:20:05;4.65;;;1.73;;
74957;SDS011;63741;42.624;26.276;2023-06-14T08:22:33;9.00;;;1.80;;
74957;SDS011;63741;42.624;26.276;2023-06-14T08:25:00;3.38;;;1.50;;
74957;SDS011;63741;42.624;26.276;2023-06-14T08:27:27;5.65;;;1.80;;
74957;SDS011;63741;42.624;26.276;2023-06-14T08:29:56;3.80;;;2.10;;
74957;SDS011;63741;42.624;26.276;2023-06-14T08:32:23;4.20;;;1.90;;
74957;SDS011;63741;42.624;26.276;2023-06-14T08:34:50;4.00;;;1.92;;
74957;SDS011;63741;42.624;26.276;2023-06-14T08:37:30;8.77;;;1.80;;
74957;SDS011;63741;42.624;26.276;2023-06-14T08:39:57;12.15;;;2.20;;
74957;SDS011;63741;42.624;26.276;2023-06-14T08:42:24;6.70;;;1.83;;
74957;SDS011;63741;42.624;26.276;2023-06-14T08:44:58;4.28;;;1.83;;
74957;SDS011;63741;42.624;26.276;2023-06-14T08:47:26;7.40;;;2.17;;
74957;SDS011;63741;42.624;26.276;2023-06-14T08:49:55;5.70;;;1.92;;
74957;SDS011;63741;42.624;26.276;2023-06-14T08:52:25;4.07;;;2.10;;
74957;SDS011;63741;42.624;26.276;2023-06-14T08:54:56;11.50;;;2.10;;
74957;SDS011;63741;42.624;26.276;2023-06-14T08:57:24;5.40;;;1.80;;
74957;SDS011;63741;42.624;26.276;2023-06-14T08:59:52;18.15;;;2.47;;
74957;SDS011;63741;42.624;26.276;2023-06-14T09:02:20;10.35;;;2.00;;
74957;SDS011;63741;42.624;26.276;2023-06-14T09:04:49;4.95;;;2.10;;
74957;SDS011;63741;42.624;26.276;2023-06-14T09:07:18;8.00;;;2.40;;
74957;SDS011;63741;42.624;26.276;2023-06-14T09:09:45;7.75;;;2.40;;
74957;SDS011;63741;42.624;26.276;2023-06-14T09:12:31;3.83;;;2.00;;
74957;SDS011;63741;42.624;26.276;2023-06-14T09:14:58;3.88;;;2.38;;
74957;SDS011;63741;42.624;26.276;2023-06-14T09:17:26;4.60;;;2.42;;
74957;SDS011;63741;42.624;26.276;2023-06-14T09:19:54;7.40;;;2.00;;
74957;SDS011;63741;42.624;26.276;2023-06-14T09:22:22;9.23;;;2.67;;
74957;SDS011;63741;42.624;26.276;2023-06-14T09:24:48;11.27;;;2.50;;
74957;SDS011;63741;42.624;26.276;2023-06-14T09:27:15;5.47;;;2.20;;
74957;SDS011;63741;42.624;26.276;2023-06-14T09:29:43;4.90;;;2.40;;
74957;SDS011;63741;42.624;26.276;2023-06-14T09:32:09;13.35;;;2.90;;
74957;SDS011;63741;42.624;26.276;2023-06-14T09:34:37;4.80;;;2.20;;
74957;SDS011;63741;42.624;26.276;2023-06-14T09:37:04;6.30;;;1.88;;
74957;SDS011;63741;42.624;26.276;2023-06-14T09:39:31;5.15;;;2.33;;
74957;SDS011;63741;42.624;26.276;2023-06-14T09:41:58;3.65;;;2.20;;
74957;SDS011;63741;42.624;26.276;2023-06-14T09:44:25;5.95;;;2.40;;
74957;SDS011;63741;42.624;26.276;2023-06-14T09:46:55;3.55;;;2.13;;
74957;SDS011;63741;42.624;26.276;2023-06-14T09:49:22;6.15;;;2.22;;
74957;SDS011;63741;42.624;26.276;2023-06-14T09:51:52;4.45;;;2.20;;
74957;SDS011;63741;42.624;26.276;2023-06-14T09:54:23;5.20;;;2.45;;
74957;SDS011;63741;42.624;26.276;2023-06-14T09:56:52;4.00;;;2.03;;
74957;SDS011;63741;42.624;26.276;2023-06-14T09:59:21;4.55;;;2.22;;
74957;SDS011;63741;42.624;26.276;2023-06-14T10:01:57;4.95;;;2.40;;
74957;SDS011;63741;42.624;26.276;2023-06-14T10:04:27;3.58;;;2.53;;
74957;SDS011;63741;42.624;26.276;2023-06-14T10:06:56;4.07;;;2.42;;
74957;SDS011;63741;42.624;26.276;2023-06-14T10:09:25;4.53;;;2.35;;
74957;SDS011;63741;42.624;26.276;2023-06-14T10:11:54;4.90;;;2.25;;
74957;SDS011;63741;42.624;26.276;2023-06-14T10:14:22;6.63;;;2.42;;
74957;SDS011;63741;42.624;26.276;2023-06-14T10:17:32;4.22;;;2.47;;
74957;SDS011;63741;42.624;26.276;2023-06-14T10:19:50;5.82;;;2.22;;
74957;SDS011;63741;42.624;26.276;2023-06-14T10:22:25;5.47;;;2.47;;
74957;SDS011;63741;42.624;26.276;2023-06-14T10:24:57;4.85;;;2.47;;
74957;SDS011;63741;42.624;26.276;2023-06-14T10:27:24;3.97;;;2.80;;
74957;SDS011;63741;42.624;26.276;2023-06-14T10:32:25;5.07;;;2.45;;
74957;SDS011;63741;42.624;26.276;2023-06-14T10:39:59;4.20;;;2.22;;
74957;SDS011;63741;42.624;26.276;2023-06-14T10:42:32;3.35;;;2.25;;
74957;SDS011;63741;42.624;26.276;2023-06-14T10:45:00;15.82;;;2.72;;
74957;SDS011;63741;42.624;26.276;2023-06-14T10:47:28;6.65;;;2.50;;
74957;SDS011;63741;42.624;26.276;2023-06-14T10:52:31;4.85;;;2.33;;
74957;SDS011;63741;42.624;26.276;2023-06-14T10:57:39;6.20;;;2.25;;
74957;SDS011;63741;42.624;26.276;2023-06-14T11:00:23;4.78;;;2.17;;
74957;SDS011;63741;42.624;26.276;2023-06-14T11:05:27;6.25;;;2.00;;
74957;SDS011;63741;42.624;26.276;2023-06-14T11:13:05;7.13;;;2.13;;
74957;SDS011;63741;42.624;26.276;2023-06-14T11:15:33;6.15;;;2.15;;
74957;SDS011;63741;42.624;26.276;2023-06-14T11:18:05;12.10;;;2.40;;
74957;SDS011;63741;42.624;26.276;2023-06-14T11:20:34;4.28;;;2.22;;
74957;SDS011;63741;42.624;26.276;2023-06-14T11:23:02;9.77;;;2.03;;
74957;SDS011;63741;42.624;26.276;2023-06-14T11:25:30;5.00;;;2.30;;
74957;SDS011;63741;42.624;26.276;2023-06-14T11:27:57;3.65;;;2.20;;
74957;SDS011;63741;42.624;26.276;2023-06-14T11:30:25;2.85;;;2.10;;
74957;SDS011;63741;42.624;26.276;2023-06-14T11:32:52;3.80;;;2.20;;
74957;SDS011;63741;42.624;26.276;2023-06-14T11:35:24;3.90;;;2.20;;
74957;SDS011;63741;42.624;26.276;2023-06-14T11:37:53;14.48;;;2.40;;
74957;SDS011;63741;42.624;26.276;2023-06-14T11:40:24;10.60;;;2.47;;
74957;SDS011;63741;42.624;26.276;2023-06-14T11:42:58;20.00;;;3.22;;
74957;SDS011;63741;42.624;26.276;2023-06-14T11:45:27;25.10;;;2.80;;
74957;SDS011;63741;42.624;26.276;2023-06-14T11:47:55;7.78;;;1.90;;
74957;SDS011;63741;42.624;26.276;2023-06-14T11:50:23;39.58;;;3.72;;
74957;SDS011;63741;42.624;26.276;2023-06-14T11:52:54;7.68;;;2.05;;
74957;SDS011;63741;42.624;26.276;2023-06-14T11:55:22;8.23;;;2.45;;
74957;SDS011;63741;42.624;26.276;2023-06-14T11:57:50;11.57;;;2.40;;
74957;SDS011;63741;42.624;26.276;2023-06-14T12:00:18;3.40;;;2.15;;
74957;SDS011;63741;42.624;26.276;2023-06-14T12:02:53;3.45;;;1.90;;
74957;SDS011;63741;42.624;26.276;2023-06-14T12:05:24;15.82;;;2.50;;
74957;SDS011;63741;42.624;26.276;2023-06-14T12:07:59;4.72;;;2.20;;
74957;SDS011;63741;42.624;26.276;2023-06-14T12:10:29;7.75;;;2.47;;
74957;SDS011;63741;42.624;26.276;2023-06-14T12:12:57;8.48;;;2.33;;
74957;SDS011;63741;42.624;26.276;2023-06-14T12:15:28;8.07;;;2.13;;
74957;SDS011;63741;42.624;26.276;2023-06-14T12:17:58;7.63;;;2.60;;
74957;SDS011;63741;42.624;26.276;2023-06-14T12:20:31;23.30;;;3.15;;
74957;SDS011;63741;42.624;26.276;2023-06-14T12:22:59;8.65;;;2.58;;
74957;SDS011;63741;42.624;26.276;2023-06-14T12:25:30;7.88;;;2.10;;
74957;SDS011;63741;42.624;26.276;2023-06-14T12:27:59;5.25;;;1.88;;
74957;SDS011;63741;42.624;26.276;2023-06-14T12:30:34;5.32;;;2.35;;
74957;SDS011;63741;42.624;26.276;2023-06-14T12:33:05;5.38;;;2.15;;
74957;SDS011;63741;42.624;26.276;2023-06-14T12:35:34;11.70;;;2.53;;
74957;SDS011;63741;42.624;26.276;2023-06-14T12:38:01;9.52;;;2.15;;
74957;SDS011;63741;42.624;26.276;2023-06-14T12:40:30;5.13;;;2.30;;
74957;SDS011;63741;42.624;26.276;2023-06-14T12:42:57;7.95;;;2.50;;
74957;SDS011;63741;42.624;26.276;2023-06-14T12:45:23;6.05;;;2.22;;
74957;SDS011;63741;42.624;26.276;2023-06-14T12:47:50;6.43;;;2.40;;
74957;SDS011;63741;42.624;26.276;2023-06-14T12:50:18;6.80;;;2.10;;
74957;SDS011;63741;42.624;26.276;2023-06-14T12:52:46;4.00;;;2.38;;
74957;SDS011;63741;42.624;26.276;2023-06-14T12:55:13;8.80;;;2.80;;
74957;SDS011;63741;42.624;26.276;2023-06-14T12:57:41;6.72;;;2.30;;
74957;SDS011;63741;42.624;26.276;2023-06-14T13:00:08;7.88;;;2.38;;
74957;SDS011;63741;42.624;26.276;2023-06-14T13:02:35;7.70;;;2.28;;
74957;SDS011;63741;42.624;26.276;2023-06-14T13:05:02;5.63;;;2.65;;
74957;SDS011;63741;42.624;26.276;2023-06-14T13:07:30;17.70;;;2.50;;
74957;SDS011;63741;42.624;26.276;2023-06-14T13:09:57;14.27;;;2.40;;
74957;SDS011;63741;42.624;26.276;2023-06-14T13:12:24;8.10;;;2.55;;
74957;SDS011;63741;42.624;26.276;2023-06-14T13:14:51;11.48;;;2.50;;
74957;SDS011;63741;42.624;26.276;2023-06-14T13:17:18;9.93;;;2.67;;
74957;SDS011;63741;42.624;26.276;2023-06-14T13:19:45;5.18;;;2.47;;
74957;SDS011;63741;42.624;26.276;2023-06-14T13:22:12;6.50;;;2.40;;
74957;SDS011;63741;42.624;26.276;2023-06-14T13:24:39;8.02;;;2.25;;
74957;SDS011;63741;42.624;26.276;2023-06-14T13:27:06;3.78;;;2.50;;
74957;SDS011;63741;42.624;26.276;2023-06-14T13:29:33;7.63;;;2.63;;
74957;SDS011;63741;42.624;26.276;2023-06-14T13:32:03;4.13;;;2.33;;
74957;SDS011;63741;42.624;26.276;2023-06-14T13:34:30;5.63;;;2.55;;
74957;SDS011;63741;42.624;26.276;2023-06-14T13:36:57;16.92;;;2.53;;
74957;SDS011;63741;42.624;26.276;2023-06-14T13:39:25;7.03;;;2.60;;
74957;SDS011;63741;42.624;26.276;2023-06-14T13:41:52;6.63;;;2.60;;
74957;SDS011;63741;42.624;26.276;2023-06-14T13:44:19;13.75;;;2.50;;
74957;SDS011;63741;42.624;26.276;2023-06-14T13:46:47;8.30;;;2.10;;
74957;SDS011;63741;42.624;26.276;2023-06-14T13:49:15;12.40;;;2.35;;
74957;SDS011;63741;42.624;26.276;2023-06-14T13:51:42;6.55;;;2.13;;
74957;SDS011;63741;42.624;26.276;2023-06-14T13:54:09;9.30;;;2.33;;
74957;SDS011;63741;42.624;26.276;2023-06-14T13:56:36;4.22;;;2.33;;
74957;SDS011;63741;42.624;26.276;2023-06-14T13:59:03;10.65;;;2.50;;
74957;SDS011;63741;42.624;26.276;2023-06-14T14:01:30;13.85;;;2.50;;
74957;SDS011;63741;42.624;26.276;2023-06-14T14:03:57;6.50;;;2.08;;
74957;SDS011;63741;42.624;26.276;2023-06-14T14:06:25;3.70;;;2.08;;
74957;SDS011;63741;42.624;26.276;2023-06-14T14:08:52;10.45;;;2.28;;
74957;SDS011;63741;42.624;26.276;2023-06-14T14:11:20;27.67;;;2.92;;
74957;SDS011;63741;42.624;26.276;2023-06-14T14:13:47;12.05;;;2.50;;
74957;SDS011;63741;42.624;26.276;2023-06-14T14:16:14;18.50;;;2.80;;
74957;SDS011;63741;42.624;26.276;2023-06-14T14:18:42;14.68;;;2.65;;
74957;SDS011;63741;42.624;26.276;2023-06-14T14:21:09;8.00;;;2.35;;
74957;SDS011;63741;42.624;26.276;2023-06-14T14:23:36;10.38;;;2.53;;
74957;SDS011;63741;42.624;26.276;2023-06-14T14:26:06;18.13;;;6.82;;
74957;SDS011;63741;42.624;26.276;2023-06-14T14:28:33;12.40;;;2.85;;
74957;SDS011;63741;42.624;26.276;2023-06-14T14:31:01;11.40;;;3.38;;
74957;SDS011;63741;42.624;26.276;2023-06-14T14:33:28;10.77;;;2.83;;
74957;SDS011;63741;42.624;26.276;2023-06-14T14:35:55;5.85;;;2.25;;
74957;SDS011;63741;42.624;26.276;2023-06-14T14:38:22;10.10;;;3.03;;
74957;SDS011;63741;42.624;26.276;2023-06-14T14:40:49;5.38;;;2.30;;
74957;SDS011;63741;42.624;26.276;2023-06-14T14:43:16;7.07;;;2.30;;
74957;SDS011;63741;42.624;26.276;2023-06-14T14:45:43;10.02;;;2.40;;
74957;SDS011;63741;42.624;26.276;2023-06-14T14:48:10;4.72;;;2.22;;
74957;SDS011;63741;42.624;26.276;2023-06-14T14:50:37;17.27;;;2.42;;
74957;SDS011;63741;42.624;26.276;2023-06-14T14:53:04;5.72;;;2.30;;
74957;SDS011;63741;42.624;26.276;2023-06-14T14:55:32;8.10;;;2.30;;
74957;SDS011;63741;42.624;26.276;2023-06-14T14:58:02;5.63;;;2.00;;
74957;SDS011;63741;42.624;26.276;2023-06-14T15:00:29;8.40;;;2.17;;
74957;SDS011;63741;42.624;26.276;2023-06-14T15:02:56;25.00;;;3.25;;
74957;SDS011;63741;42.624;26.276;2023-06-14T15:05:23;8.32;;;2.00;;